Saturday, January 20, 2018, 8:25 AM EST
Back to Local

KELZ, Wellsville Municipal Airport

Location: Wellsville, NY, United States Lat: 42.1
Local Time: 8:25 AM EST (13:25 GMT) Lon: -78
Time Zone: US/Eastern Elev: 2122 ft

Show me the last for .
Show Coded

Time T Td Feel RH Dir Speed Gust Alt SLP Vis Weather Sky Remarks
2018-01-20 06:56 33 21 20 60 250° 13 25 29.80 29.86 10 CLR Peak wind: 29 mph (26 kts) from 230° at 34 min
6-hr Min Temp (7am): 33.1°F
6-hr Max Temp (7am): 34.0°F
2018-01-20 05:56 33 21 19 60 250° 18 31 29.78 29.83 10 CLR Peak wind: 32 mph (28 kts) from 240° at 39 min
2018-01-20 04:56 34 20 22 55 240° 9 21 29.77 29.82 10 CLR Peak wind: 29 mph (26 kts) from 240° at 31 min
2018-01-20 03:56 33 20 20 58 230° 15 24 29.76 29.81 10 CLR Peak wind: 29 mph (26 kts) from 240° at 01 min
2018-01-20 01:56 33 19 20 55 230° 14 26 29.76 29.81 10 CLR None
2018-01-20 00:56 33 18 20 53 230° 17 28 29.76 29.82 10 CLR Peak wind: 29 mph (26 kts) from 240° at 12 min
6-hr Min Temp (1am): 33.1°F
6-hr Max Temp (1am): 34.0°F
2018-01-19 23:56 34 18 20 51 240° 15 33 29.79 29.85 10 CLR Peak wind: 33 mph (29 kts) from 220° at 18 min
24-hr Min Temp (12am): 18.0°F
24-hr Max Temp (12am): 37.9°F
2018-01-19 22:56 34 18 21 51 240° 17 26 29.80 29.86 10 CLR None
2018-01-19 21:56 33 18 20 53 240° 15 24 29.81 29.89 10 CLR Peak wind: 32 mph (28 kts) from 220° at 59 min
2018-01-19 20:56 34 18 21 51 240° 15 28 29.83 29.91 10 CLR None
2018-01-19 19:56 34 18 21 51 240° 17 25 29.83 29.91 10 CLR Peak wind: 31 mph (27 kts) from 230° at 29 min
2018-01-19 18:56 34 19 22 53 230° 17 23 29.85 29.92 10 CLR 6-hr Min Temp (7pm): 33.1°F
6-hr Max Temp (7pm): 37.9°F
2018-01-19 17:56 34 19 22 53 230° 13 21 29.85 29.92 10 CLR None
2018-01-19 16:56 35 19 24 51 230° 9 18 29.87 29.95 10 CLR None
2018-01-19 15:56 38 19 28 46 230° 10 20 29.87 29.94 10 CLR None
2018-01-19 14:56 37 19 27 47 230° 10 20 29.86 29.93 10 CLR None
2018-01-19 13:56 36 18 25 47 250° 12 21 29.85 29.93 10 CLR None
2018-01-19 12:56 33 17 24 51 230° 12 - 29.87 29.94 10 CLR 6-hr Min Temp (1pm): 18.0°F
6-hr Max Temp (1pm): 33.1°F
2018-01-19 11:56 29 15 16 55 230° 14 20 29.89 29.98 10 CLR None
2018-01-19 10:56 25 13 11 59 250° 12 18 29.92 30.01 10 CLR None
2018-01-19 09:56 22 12 7 65 250° 15 21 29.92 30.01 10 CLR None
2018-01-19 08:56 20 11 4 67 240° 14 22 29.93 30.02 10 CLR None

Support USWX by starting your Amazon purchase here.